createdAt,value
2019-01-08T00:00:03.721Z,31.20
2019-01-08T00:02:32.076Z,30.73
2019-01-08T00:05:00.539Z,39.43
2019-01-08T00:07:28.945Z,28.60
2019-01-08T00:09:57.352Z,34.87
2019-01-08T00:12:25.762Z,20.70
2019-01-08T00:14:54.164Z,34.70
2019-01-08T00:17:22.572Z,25.97
2019-01-08T00:19:50.990Z,31.90
2019-01-08T00:22:19.385Z,27.33
2019-01-08T00:24:48.688Z,27.03
2019-01-08T00:27:18.886Z,52.80
2019-01-08T00:29:47.288Z,32.90
2019-01-08T00:32:15.855Z,20.23
2019-01-08T00:34:44.257Z,30.00
2019-01-08T00:37:12.665Z,28.77
2019-01-08T00:39:41.064Z,34.07
2019-01-08T00:42:09.503Z,32.10
2019-01-08T00:44:37.952Z,34.30
2019-01-08T00:47:06.361Z,39.10
2019-01-08T00:49:34.762Z,30.30
2019-01-08T00:52:03.175Z,26.70
2019-01-08T00:54:31.575Z,27.50
2019-01-08T00:56:59.987Z,48.70
2019-01-08T00:59:28.390Z,46.40
2019-01-08T01:01:57.939Z,38.70
2019-01-08T01:04:26.337Z,37.17
2019-01-08T01:06:54.747Z,43.27
2019-01-08T01:09:23.141Z,26.10
2019-01-08T01:11:51.552Z,34.63
2019-01-08T01:14:19.952Z,45.93
2019-01-08T01:16:48.384Z,33.00
2019-01-08T01:19:17.100Z,28.13
2019-01-08T01:21:45.511Z,43.50
2019-01-08T01:24:13.912Z,37.90
2019-01-08T01:26:42.332Z,40.80
2019-01-08T01:29:10.734Z,33.20
2019-01-08T01:31:39.146Z,41.23
2019-01-08T01:34:07.674Z,32.93
2019-01-08T01:36:36.419Z,43.80
2019-01-08T01:39:06.557Z,32.23
2019-01-08T01:41:35.060Z,30.30
2019-01-08T01:44:03.461Z,51.60
2019-01-08T01:46:31.877Z,28.47
2019-01-08T01:49:00.284Z,25.43
2019-01-08T01:51:28.684Z,29.27
2019-01-08T01:53:57.084Z,33.10
2019-01-08T01:56:25.505Z,40.73
2019-01-08T01:58:53.902Z,31.90
2019-01-08T02:01:22.319Z,22.03
2019-01-08T02:03:50.717Z,35.63
2019-01-08T02:06:19.203Z,29.60
2019-01-08T02:08:47.600Z,28.23
2019-01-08T02:11:16.006Z,47.10
2019-01-08T02:13:44.416Z,44.73
2019-01-08T02:16:12.810Z,38.83
2019-01-08T02:18:41.221Z,37.33
2019-01-08T02:21:09.620Z,32.87
2019-01-08T02:23:38.031Z,32.67
2019-01-08T02:26:06.427Z,22.20
2019-01-08T02:28:34.858Z,24.80
2019-01-08T02:31:03.260Z,32.60
2019-01-08T02:33:31.673Z,42.27
2019-01-08T02:36:00.069Z,27.00
2019-01-08T02:38:28.480Z,23.57
2019-01-08T02:40:56.885Z,27.47
2019-01-08T02:43:25.291Z,26.67
2019-01-08T02:45:53.856Z,30.93
2019-01-08T02:48:22.270Z,16.53
2019-01-08T02:50:50.674Z,15.40
2019-01-08T02:53:19.081Z,20.03
2019-01-08T02:55:47.476Z,14.50
2019-01-08T02:58:15.900Z,14.10
2019-01-08T03:00:44.292Z,18.43
2019-01-08T03:03:12.832Z,24.70
2019-01-08T03:05:41.241Z,29.63
2019-01-08T03:08:09.649Z,35.13
2019-01-08T03:10:38.044Z,30.43
2019-01-08T03:13:06.460Z,23.87
2019-01-08T03:15:36.296Z,27.93
2019-01-08T03:18:04.704Z,35.50
2019-01-08T03:20:33.100Z,37.93
2019-01-08T03:23:01.516Z,27.40
2019-01-08T03:25:29.924Z,44.80
2019-01-08T03:27:58.328Z,34.13
2019-01-08T03:30:26.730Z,31.27
2019-01-08T03:32:55.129Z,24.67
2019-01-08T03:35:23.540Z,11.17
2019-01-08T03:37:51.956Z,27.60
2019-01-08T03:40:20.360Z,32.43
2019-01-08T03:42:48.756Z,29.93
2019-01-08T03:45:17.163Z,39.57
2019-01-08T03:47:45.560Z,24.90
2019-01-08T03:50:13.985Z,31.30
2019-01-08T03:52:42.380Z,26.20
2019-01-08T03:55:10.804Z,31.07
2019-01-08T03:57:39.204Z,33.13
2019-01-08T04:00:10.615Z,28.17
2019-01-08T04:02:40.556Z,29.93
2019-01-08T04:05:08.966Z,33.50
2019-01-08T04:07:37.511Z,35.57
2019-01-08T04:10:07.764Z,53.23
2019-01-08T04:12:36.165Z,27.50
2019-01-08T04:15:05.464Z,31.67
2019-01-08T04:17:34.136Z,24.20
2019-01-08T04:20:02.812Z,25.60
2019-01-08T04:22:31.276Z,24.47
2019-01-08T04:24:59.790Z,37.67
2019-01-08T04:27:28.184Z,16.47
2019-01-08T04:29:56.598Z,19.90
2019-01-08T04:32:25.002Z,49.87
2019-01-08T04:34:53.400Z,16.80
2019-01-08T04:37:21.869Z,19.43
2019-01-08T04:39:50.272Z,34.67
2019-01-08T04:42:18.672Z,34.50
2019-01-08T04:44:47.073Z,44.80
2019-01-08T04:47:15.489Z,36.70
2019-01-08T04:49:43.888Z,34.63
2019-01-08T04:52:12.453Z,45.00
2019-01-08T04:54:40.844Z,36.87
2019-01-08T04:57:09.247Z,22.13
2019-01-08T04:59:37.647Z,21.67
2019-01-08T05:02:06.064Z,27.17
2019-01-08T05:04:34.456Z,28.43
2019-01-08T05:07:02.867Z,29.30
2019-01-08T05:09:31.266Z,34.93
2019-01-08T05:11:59.676Z,17.93
2019-01-08T05:14:28.081Z,33.10
2019-01-08T05:16:56.549Z,46.33
2019-01-08T05:19:24.949Z,19.43
2019-01-08T05:21:53.530Z,17.83
2019-01-08T05:24:21.979Z,26.10
2019-01-08T05:26:50.392Z,32.07
2019-01-08T05:29:18.796Z,36.27
2019-01-08T05:31:47.211Z,23.00
2019-01-08T05:34:17.140Z,28.73
2019-01-08T05:36:45.552Z,19.13
2019-01-08T05:39:13.964Z,35.60
2019-01-08T05:41:42.364Z,25.43
2019-01-08T05:44:10.766Z,33.93
2019-01-08T05:46:39.164Z,31.17
2019-01-08T05:49:07.573Z,38.83
2019-01-08T05:51:35.975Z,25.20
2019-01-08T05:54:04.400Z,30.77
2019-01-08T05:56:32.953Z,25.83
2019-01-08T05:59:01.485Z,40.53
2019-01-08T06:01:29.892Z,26.33
2019-01-08T06:03:58.300Z,49.67
2019-01-08T06:06:27.266Z,48.53
2019-01-08T06:08:55.680Z,38.13
2019-01-08T06:11:24.140Z,27.80
2019-01-08T06:13:52.561Z,36.93
2019-01-08T06:16:20.962Z,57.97
2019-01-08T06:18:49.372Z,48.93
2019-01-08T06:21:17.776Z,47.00
2019-01-08T06:23:46.207Z,50.67
2019-01-08T06:26:14.603Z,54.97
2019-01-08T06:28:43.012Z,47.63
2019-01-08T06:31:11.468Z,42.47
2019-01-08T06:33:39.876Z,52.77
2019-01-08T06:36:08.328Z,54.73
2019-01-08T06:38:36.736Z,88.07
2019-01-08T06:41:05.137Z,40.07
2019-01-08T06:43:33.552Z,44.40
2019-01-08T06:46:01.980Z,33.70
2019-01-08T06:48:30.621Z,36.80
2019-01-08T06:50:59.021Z,37.50
2019-01-08T06:53:27.427Z,37.00
2019-01-08T06:55:58.742Z,67.13
2019-01-08T06:58:27.305Z,59.93
2019-01-08T07:00:55.769Z,33.03
2019-01-08T07:03:24.465Z,41.13
2019-01-08T07:05:52.877Z,58.57
2019-01-08T07:08:21.343Z,29.73
2019-01-08T07:10:49.753Z,28.97
2019-01-08T07:13:18.153Z,19.37
2019-01-08T07:15:46.562Z,31.40
2019-01-08T07:18:14.960Z,16.63
2019-01-08T07:20:43.372Z,21.40
2019-01-08T07:23:11.779Z,37.10
2019-01-08T07:25:42.309Z,30.30
2019-01-08T07:28:10.310Z,20.47
2019-01-08T07:30:41.632Z,17.93
2019-01-08T07:33:08.908Z,39.37
2019-01-08T07:35:37.325Z,26.00
2019-01-08T07:38:05.818Z,39.47
2019-01-08T07:40:34.220Z,25.87
2019-01-08T07:43:02.615Z,32.17
2019-01-08T07:45:31.024Z,25.17
2019-01-08T07:47:59.420Z,26.33
2019-01-08T07:50:27.829Z,17.97
2019-01-08T07:52:56.385Z,23.53
2019-01-08T07:55:24.788Z,8.30
2019-01-08T07:57:53.187Z,25.43
2019-01-08T08:00:21.604Z,14.27
2019-01-08T08:02:50.052Z,38.67
2019-01-08T08:05:18.503Z,24.20
2019-01-08T08:07:48.037Z,23.97
2019-01-08T08:10:16.444Z,33.73
2019-01-08T08:12:44.845Z,13.37
2019-01-08T08:15:13.256Z,33.60
2019-01-08T08:17:41.657Z,47.13
2019-01-08T08:20:10.064Z,23.13
2019-01-08T08:22:38.473Z,31.97
2019-01-08T08:25:07.354Z,45.53
2019-01-08T08:27:35.767Z,50.20
2019-01-08T08:30:06.212Z,18.83
2019-01-08T08:32:34.611Z,21.43
2019-01-08T08:35:08.260Z,38.93
2019-01-08T08:37:33.405Z,39.23
2019-01-08T08:40:01.815Z,27.13
2019-01-08T08:42:30.219Z,32.27
2019-01-08T08:44:58.620Z,33.80
2019-01-08T08:47:28.448Z,29.93
2019-01-08T08:49:56.920Z,36.80
2019-01-08T08:52:25.460Z,32.43
2019-01-08T08:54:53.862Z,26.10
2019-01-08T08:57:22.277Z,21.50
2019-01-08T08:59:50.665Z,30.67
2019-01-08T09:02:19.080Z,31.10
2019-01-08T09:04:47.477Z,27.90
2019-01-08T09:07:15.885Z,54.33
2019-01-08T09:09:44.292Z,34.10
2019-01-08T09:12:12.696Z,41.97
2019-01-08T09:14:42.139Z,44.73
2019-01-08T09:17:11.784Z,28.60
2019-01-08T09:19:40.216Z,28.93
2019-01-08T09:22:08.624Z,24.17
2019-01-08T09:24:37.031Z,29.97
2019-01-08T09:27:05.436Z,36.20
2019-01-08T09:29:33.841Z,41.70
2019-01-08T09:32:02.430Z,47.47
2019-01-08T09:34:30.984Z,33.37
2019-01-08T09:36:59.401Z,39.30
2019-01-08T09:39:27.805Z,22.67
2019-01-08T09:41:56.216Z,43.60
2019-01-08T09:44:24.617Z,34.37
2019-01-08T09:46:53.156Z,39.90
2019-01-08T09:49:21.558Z,36.67
2019-01-08T09:51:49.964Z,50.43
2019-01-08T09:54:18.374Z,28.77
2019-01-08T09:56:46.777Z,34.93
2019-01-08T09:59:15.251Z,43.27
2019-01-08T10:01:43.660Z,56.53
2019-01-08T10:04:12.096Z,50.57
2019-01-08T10:06:40.507Z,46.13
2019-01-08T10:09:08.905Z,41.10
2019-01-08T10:11:37.716Z,35.93
2019-01-08T10:14:06.109Z,24.83
2019-01-08T10:16:34.533Z,37.47
2019-01-08T10:19:02.928Z,22.70
2019-01-08T10:21:31.517Z,24.73
2019-01-08T10:24:01.956Z,24.17
2019-01-08T10:26:30.041Z,14.10
2019-01-08T10:28:58.448Z,36.77
2019-01-08T10:31:32.289Z,35.90
2019-01-08T10:33:57.104Z,38.10
2019-01-08T10:36:25.497Z,34.27
2019-01-08T10:38:53.904Z,46.90
2019-01-08T10:41:22.299Z,34.70
2019-01-08T10:43:50.708Z,33.30
2019-01-08T10:46:19.105Z,38.70
2019-01-08T10:48:47.560Z,26.77
2019-01-08T10:51:15.963Z,42.63
2019-01-08T10:53:44.424Z,26.60
2019-01-08T10:56:12.953Z,44.70
2019-01-08T10:58:41.361Z,21.87
2019-01-08T11:01:09.764Z,23.93
2019-01-08T11:03:38.177Z,35.47
2019-01-08T11:06:06.624Z,31.20
2019-01-08T11:08:35.033Z,44.43
2019-01-08T11:11:03.432Z,34.37
2019-01-08T11:13:31.839Z,29.70
2019-01-08T11:16:00.242Z,21.43
2019-01-08T11:18:28.656Z,32.47
2019-01-08T11:20:57.052Z,28.10
2019-01-08T11:23:25.460Z,25.70
2019-01-08T11:25:53.860Z,27.23
2019-01-08T11:28:22.332Z,42.90
2019-01-08T11:30:50.731Z,32.30
2019-01-08T11:33:20.174Z,39.50
2019-01-08T11:35:48.582Z,39.90
2019-01-08T11:38:16.990Z,20.50
2019-01-08T11:40:45.394Z,13.50
2019-01-08T11:43:13.798Z,27.17
2019-01-08T11:45:42.204Z,30.47
2019-01-08T11:48:10.615Z,31.27
2019-01-08T11:50:39.004Z,41.27
2019-01-08T11:53:07.437Z,39.27
2019-01-08T11:55:35.889Z,36.43
2019-01-08T11:58:04.404Z,34.30
2019-01-08T12:00:32.812Z,46.17
2019-01-08T12:03:01.208Z,54.93
2019-01-08T12:05:29.624Z,28.37
2019-01-08T12:07:58.020Z,29.73
2019-01-08T12:10:26.428Z,45.63
2019-01-08T12:12:55.004Z,36.83
2019-01-08T12:15:23.524Z,27.57
2019-01-08T12:17:51.925Z,40.83
2019-01-08T12:20:20.330Z,43.50
2019-01-08T12:22:48.734Z,31.03
2019-01-08T12:25:17.144Z,37.77
2019-01-08T12:27:45.538Z,30.53
2019-01-08T12:30:14.036Z,48.90
2019-01-08T12:32:42.434Z,20.83
2019-01-08T12:35:10.840Z,34.97
2019-01-08T12:37:39.241Z,28.03
2019-01-08T12:40:07.925Z,33.70
2019-01-08T12:42:36.324Z,29.00
2019-01-08T12:45:06.069Z,25.80
2019-01-08T12:47:34.469Z,25.77
2019-01-08T12:50:02.880Z,28.77
2019-01-08T12:52:31.312Z,32.57
2019-01-08T12:54:59.720Z,28.27
2019-01-08T12:57:28.128Z,31.17
2019-01-08T12:59:56.546Z,40.03
2019-01-08T13:02:24.937Z,54.60
2019-01-08T13:04:54.820Z,38.77
2019-01-08T13:07:23.224Z,49.43
2019-01-08T13:09:51.682Z,38.97
2019-01-08T13:12:20.080Z,52.47
2019-01-08T13:14:48.489Z,29.33
2019-01-08T13:17:16.894Z,50.37
2019-01-08T13:19:45.340Z,47.87
2019-01-08T13:22:13.751Z,48.83
2019-01-08T13:24:42.155Z,46.87
2019-01-08T13:27:10.558Z,44.00
2019-01-08T13:29:39.040Z,47.17
2019-01-08T13:32:07.437Z,47.40
2019-01-08T13:34:35.840Z,47.10
2019-01-08T13:37:04.242Z,61.90
2019-01-08T13:39:32.649Z,37.53
2019-01-08T13:42:01.048Z,42.57
2019-01-08T13:44:29.457Z,46.10
2019-01-08T13:46:57.857Z,43.30
2019-01-08T13:49:26.269Z,37.20
2019-01-08T13:51:54.668Z,30.87
2019-01-08T13:54:23.060Z,37.57
2019-01-08T13:56:51.785Z,42.47
2019-01-08T13:59:20.188Z,44.87
2019-01-08T14:01:48.594Z,47.20
2019-01-08T14:04:16.990Z,31.73
2019-01-08T14:06:45.396Z,21.63
2019-01-08T14:09:13.797Z,14.67
2019-01-08T14:11:42.256Z,12.73
2019-01-08T14:14:10.673Z,17.77
2019-01-08T14:16:39.200Z,5.00
2019-01-08T14:19:07.592Z,9.17
2019-01-08T14:21:35.996Z,11.00
2019-01-08T14:24:04.393Z,5.97
2019-01-08T14:26:32.803Z,5.37
2019-01-08T14:29:01.200Z,4.80
2019-01-08T14:31:29.608Z,8.53
2019-01-08T14:33:58.004Z,7.93
2019-01-08T14:36:26.408Z,1.97
2019-01-08T14:38:54.812Z,7.10
2019-01-08T14:41:23.217Z,1.97
2019-01-08T14:43:53.250Z,2.63
2019-01-08T14:46:21.657Z,3.47
2019-01-08T14:48:50.148Z,3.50
2019-01-08T14:51:18.839Z,2.40
2019-01-08T14:53:47.237Z,2.90
2019-01-08T14:56:15.726Z,2.53
2019-01-08T14:58:44.195Z,2.93
2019-01-08T15:01:12.604Z,3.40
2019-01-08T15:03:41.366Z,5.50
2019-01-08T15:06:09.777Z,1.37
2019-01-08T15:08:38.178Z,4.27
2019-01-08T15:11:06.578Z,4.13
2019-01-08T15:13:34.968Z,2.10
2019-01-08T15:16:03.476Z,1.70
2019-01-08T15:18:31.872Z,5.00
2019-01-08T15:21:00.281Z,1.60
2019-01-08T15:23:28.685Z,1.03
2019-01-08T15:25:57.089Z,2.13
2019-01-08T15:28:25.489Z,3.47
2019-01-08T15:30:54.075Z,1.03
2019-01-08T15:33:22.524Z,5.93
2019-01-08T15:35:50.917Z,0.80
2019-01-08T15:38:19.324Z,2.30
2019-01-08T15:40:47.725Z,1.27
2019-01-08T15:43:16.129Z,4.00
2019-01-08T15:45:45.390Z,2.10
2019-01-08T15:48:13.792Z,2.83
2019-01-08T15:50:42.197Z,5.30
2019-01-08T15:53:11.611Z,2.67
2019-01-08T15:55:39.977Z,0.93
2019-01-08T15:58:08.387Z,6.23
2019-01-08T16:00:36.788Z,8.37
2019-01-08T16:03:07.445Z,3.07
2019-01-08T16:05:35.321Z,3.57
2019-01-08T16:08:03.730Z,8.00
2019-01-08T16:10:32.120Z,7.47
2019-01-08T16:13:00.528Z,0.80
2019-01-08T16:15:28.924Z,5.37
2019-01-08T16:17:57.332Z,3.80
2019-01-08T16:20:25.735Z,7.50
2019-01-08T16:22:54.145Z,11.87
2019-01-08T16:25:22.540Z,9.13
2019-01-08T16:27:50.977Z,6.13
2019-01-08T16:30:20.170Z,11.10
2019-01-08T16:32:48.749Z,4.83
2019-01-08T16:35:17.149Z,3.80
2019-01-08T16:37:45.557Z,10.93
2019-01-08T16:40:14.824Z,7.27
2019-01-08T16:42:43.351Z,5.57
2019-01-08T16:45:11.763Z,5.53
2019-01-08T16:47:40.175Z,1.47
2019-01-08T16:50:08.581Z,1.33
2019-01-08T16:52:36.984Z,7.30
2019-01-08T16:55:06.320Z,8.53
2019-01-08T16:57:34.724Z,5.30
2019-01-08T17:00:03.513Z,4.53
2019-01-08T17:02:33.040Z,1.70
2019-01-08T17:05:01.696Z,8.27
2019-01-08T17:07:30.094Z,9.43
2019-01-08T17:09:58.487Z,1.73
2019-01-08T17:12:26.891Z,3.73
2019-01-08T17:14:55.637Z,3.20
2019-01-08T17:17:24.024Z,3.57
2019-01-08T17:19:52.613Z,9.73
2019-01-08T17:22:21.029Z,4.63
2019-01-08T17:24:49.673Z,1.30
2019-01-08T17:27:18.307Z,4.13
2019-01-08T17:29:46.713Z,4.20
2019-01-08T17:32:15.408Z,8.13
2019-01-08T17:34:43.992Z,3.37
2019-01-08T17:37:12.404Z,3.00
2019-01-08T17:39:40.829Z,2.43
2019-01-08T17:42:09.227Z,0.80
2019-01-08T17:44:37.709Z,3.43
2019-01-08T17:47:06.723Z,31.17
2019-01-08T17:49:35.132Z,0.80
2019-01-08T17:52:03.662Z,5.20
2019-01-08T17:54:32.341Z,2.97
2019-01-08T17:57:01.364Z,4.07
2019-01-08T17:59:29.854Z,3.03
2019-01-08T18:01:58.253Z,8.20
2019-01-08T18:04:26.664Z,3.80
2019-01-08T18:06:55.049Z,2.70
2019-01-08T18:09:23.853Z,8.63
2019-01-08T18:11:52.249Z,4.73
2019-01-08T18:14:20.700Z,7.37
2019-01-08T18:16:49.100Z,1.20
2019-01-08T18:19:17.504Z,1.90
2019-01-08T18:21:45.911Z,33.80
2019-01-08T18:24:14.323Z,48.23
2019-01-08T18:26:42.720Z,4.60
2019-01-08T18:29:11.380Z,2.63
2019-01-08T18:31:40.461Z,9.93
2019-01-08T18:34:08.896Z,78.37
2019-01-08T18:36:37.302Z,3.17
2019-01-08T18:39:07.159Z,8.30
2019-01-08T18:41:35.568Z,5.77
2019-01-08T18:44:06.957Z,2.00
2019-01-08T18:46:35.451Z,1.10
2019-01-08T18:49:03.856Z,18.33
2019-01-08T18:51:32.268Z,2.27
2019-01-08T18:54:00.665Z,9.37
2019-01-08T18:56:29.069Z,7.43
2019-01-08T18:58:57.494Z,6.13
2019-01-08T19:01:25.884Z,1.43
2019-01-08T19:03:59.730Z,8.23
2019-01-08T19:06:24.416Z,4.03
2019-01-08T19:09:23.904Z,2.10
2019-01-08T19:11:52.584Z,2.00
2019-01-08T19:14:23.742Z,0.60
2019-01-08T19:16:53.678Z,1.73
2019-01-08T19:19:22.074Z,3.47
2019-01-08T19:21:50.808Z,4.60
2019-01-08T19:24:20.038Z,2.20
2019-01-08T19:26:48.470Z,2.80
2019-01-08T19:29:16.872Z,3.00
2019-01-08T19:31:45.277Z,9.40
2019-01-08T19:34:13.672Z,4.73
2019-01-08T19:36:42.245Z,103.77
2019-01-08T19:39:10.642Z,5.40
2019-01-08T19:41:40.340Z,4.00
2019-01-08T19:44:08.800Z,1.60
2019-01-08T19:46:37.265Z,5.93
2019-01-08T19:49:05.822Z,3.27
2019-01-08T19:51:34.265Z,5.07
2019-01-08T19:54:02.656Z,4.97
2019-01-08T19:56:31.214Z,1.30
2019-01-08T19:58:59.789Z,6.70
2019-01-08T20:01:28.193Z,0.90
2019-01-08T20:03:56.591Z,5.20
2019-01-08T20:06:25.012Z,4.00
2019-01-08T20:08:53.608Z,3.80
2019-01-08T20:11:22.027Z,2.30
2019-01-08T20:13:50.437Z,1.77
2019-01-08T20:16:18.847Z,1.10
2019-01-08T20:18:47.369Z,2.87
2019-01-08T20:21:15.821Z,0.90
2019-01-08T20:23:44.228Z,2.10
2019-01-08T20:26:12.671Z,6.73
2019-01-08T20:28:41.072Z,3.53
2019-01-08T20:31:09.477Z,2.80
2019-01-08T20:33:37.872Z,2.20
2019-01-08T20:36:06.282Z,0.90
2019-01-08T20:38:34.714Z,1.17
2019-01-08T20:41:03.241Z,3.00
2019-01-08T20:43:31.660Z,2.90
2019-01-08T20:46:00.060Z,3.57
2019-01-08T20:48:31.151Z,4.10
2019-01-08T20:50:59.600Z,6.50
2019-01-08T20:53:28.001Z,1.93
2019-01-08T20:55:56.571Z,4.10
2019-01-08T20:58:28.635Z,4.40
2019-01-08T21:00:55.101Z,4.50
2019-01-08T21:03:23.791Z,5.93
2019-01-08T21:05:52.177Z,6.10
2019-01-08T21:08:20.716Z,5.60
2019-01-08T21:10:49.112Z,9.33
2019-01-08T21:13:18.287Z,10.20
2019-01-08T21:15:47.216Z,12.10
2019-01-08T21:18:16.166Z,7.03
2019-01-08T21:20:44.865Z,8.07
2019-01-08T21:23:13.891Z,9.77
2019-01-08T21:25:42.553Z,4.23
2019-01-08T21:28:10.956Z,2.67
2019-01-08T21:30:40.891Z,3.17
2019-01-08T21:33:10.529Z,7.13
2019-01-08T21:35:38.888Z,4.43
2019-01-08T21:38:07.296Z,7.20
2019-01-08T21:40:35.697Z,9.23
2019-01-08T21:43:04.126Z,1.57
2019-01-08T21:45:32.537Z,3.27
2019-01-08T21:48:00.973Z,10.53
2019-01-08T21:50:29.373Z,8.90
2019-01-08T21:52:58.853Z,6.20
2019-01-08T21:55:27.251Z,7.67
2019-01-08T21:57:55.656Z,14.67
2019-01-08T22:00:24.052Z,3.90
2019-01-08T22:02:53.441Z,2.80
2019-01-08T22:05:21.833Z,4.30
2019-01-08T22:07:50.508Z,4.43
2019-01-08T22:10:18.912Z,4.67
2019-01-08T22:12:47.330Z,10.90
2019-01-08T22:15:15.723Z,1.97
2019-01-08T22:17:44.301Z,10.37
2019-01-08T22:20:13.171Z,13.87
2019-01-08T22:22:52.354Z,12.77
2019-01-08T22:25:13.884Z,5.10
2019-01-08T22:27:42.357Z,6.33
2019-01-08T22:30:10.940Z,7.50
2019-01-08T22:32:39.354Z,8.27
2019-01-08T22:35:08.514Z,6.43
2019-01-08T22:37:36.912Z,10.73
2019-01-08T22:40:08.059Z,6.57
2019-01-08T22:42:36.821Z,4.77
2019-01-08T22:45:06.633Z,5.30
2019-01-08T22:47:36.563Z,6.10
2019-01-08T22:50:07.073Z,11.17
2019-01-08T22:52:35.841Z,1.47
2019-01-08T22:55:05.095Z,3.50
2019-01-08T22:57:33.492Z,3.37
2019-01-08T23:00:02.119Z,5.97
2019-01-08T23:02:30.787Z,4.53
2019-01-08T23:04:59.203Z,11.40
2019-01-08T23:07:27.645Z,12.00
2019-01-08T23:09:56.048Z,8.80
2019-01-08T23:12:24.452Z,7.33
2019-01-08T23:14:52.899Z,4.57
2019-01-08T23:17:21.512Z,9.13
2019-01-08T23:19:49.920Z,7.57
2019-01-08T23:22:18.320Z,4.53
2019-01-08T23:24:46.739Z,10.50
2019-01-08T23:27:15.152Z,2.97
2019-01-08T23:29:43.560Z,5.67
2019-01-08T23:32:12.261Z,8.90
2019-01-08T23:34:40.675Z,22.83
2019-01-08T23:37:09.081Z,14.63
2019-01-08T23:39:37.496Z,12.57
2019-01-08T23:42:05.996Z,7.93
2019-01-08T23:44:34.488Z,11.07
2019-01-08T23:47:02.871Z,4.70
2019-01-08T23:49:31.319Z,7.00
2019-01-08T23:52:02.373Z,7.10
2019-01-08T23:54:32.319Z,5.40
2019-01-08T23:57:02.756Z,7.47
2019-01-08T23:59:31.165Z,4.37
